createdAt,value
2018-03-02T00:02:21.410Z,8.70
2018-03-02T00:04:50.410Z,8.32
2018-03-02T00:07:18.982Z,7.45
2018-03-02T00:09:47.500Z,6.00
2018-03-02T00:12:16.051Z,8.10
2018-03-02T00:14:44.614Z,7.15
2018-03-02T00:17:13.157Z,8.90
2018-03-02T00:19:41.690Z,7.12
2018-03-02T00:22:10.288Z,7.45
2018-03-02T00:24:38.822Z,7.22
2018-03-02T00:35:46.510Z,7.97
2018-03-02T00:38:15.066Z,8.55
2018-03-02T00:40:44.361Z,8.20
2018-03-02T00:43:12.905Z,7.82
2018-03-02T00:45:41.438Z,7.87
2018-03-02T00:48:10.799Z,8.10
2018-03-02T00:50:40.238Z,7.72
2018-03-02T00:53:08.533Z,7.63
2018-03-02T00:55:36.818Z,9.10
2018-03-02T00:58:05.365Z,9.55
2018-03-02T01:00:33.901Z,9.23
2018-03-02T01:03:02.449Z,8.93
2018-03-02T01:05:30.989Z,9.75
2018-03-02T01:07:59.517Z,8.27
2018-03-02T01:10:28.073Z,9.85
2018-03-02T01:12:56.620Z,8.82
2018-03-02T01:15:26.382Z,8.00
2018-03-02T01:17:54.580Z,6.65
2018-03-02T01:20:23.121Z,9.00
2018-03-02T01:22:51.833Z,9.00
2018-03-02T01:25:20.653Z,7.35
2018-03-02T01:27:49.181Z,10.40
2018-03-02T01:30:17.774Z,9.75
2018-03-02T01:32:46.316Z,6.85
2018-03-02T01:35:14.670Z,10.30
2018-03-02T01:40:36.503Z,7.55
2018-03-02T01:43:04.857Z,9.85
2018-03-02T01:45:33.394Z,9.40
2018-03-02T01:48:02.041Z,7.43
2018-03-02T01:50:30.596Z,9.13
2018-03-02T01:52:59.136Z,10.25
2018-03-02T01:55:27.713Z,9.40
2018-03-02T01:57:56.234Z,9.07
2018-03-02T02:00:24.792Z,10.40
2018-03-02T02:05:49.713Z,9.85
2018-03-02T02:08:18.259Z,9.00
2018-03-02T02:10:47.820Z,10.95
2018-03-02T02:13:16.355Z,8.70
2018-03-02T02:15:45.696Z,10.75
2018-03-02T02:18:14.550Z,9.77
2018-03-02T02:20:43.097Z,7.50
2018-03-02T02:23:11.685Z,10.15
2018-03-02T02:25:40.220Z,11.00
2018-03-02T02:28:11.012Z,11.85
2018-03-02T02:30:39.565Z,9.05
2018-03-02T02:33:08.262Z,9.18
2018-03-02T02:35:36.797Z,11.05
2018-03-02T02:38:05.370Z,10.18
2018-03-02T02:40:33.918Z,11.12
2018-03-02T02:43:02.475Z,10.77
2018-03-02T02:45:31.815Z,12.30
2018-03-02T02:48:00.343Z,8.52
2018-03-02T02:50:30.477Z,10.65
2018-03-02T02:52:59.780Z,10.95
2018-03-02T02:55:28.350Z,9.40
2018-03-02T02:57:56.897Z,11.95
2018-03-02T03:00:25.125Z,10.07
2018-03-02T03:02:54.080Z,11.12
2018-03-02T03:05:22.612Z,10.75
2018-03-02T03:07:51.936Z,11.45
2018-03-02T03:10:20.490Z,11.20
2018-03-02T03:12:49.036Z,11.30
2018-03-02T03:15:18.365Z,9.98
2018-03-02T03:17:46.927Z,12.10
2018-03-02T03:20:15.122Z,11.07
2018-03-02T03:22:43.673Z,12.43
2018-03-02T03:25:12.211Z,11.80
2018-03-02T03:27:40.766Z,11.63
2018-03-02T03:30:08.982Z,11.85
2018-03-02T03:32:37.538Z,11.43
2018-03-02T03:35:06.113Z,10.32
2018-03-02T03:37:34.663Z,11.52
2018-03-02T03:40:03.201Z,11.98
2018-03-02T03:42:31.429Z,10.32
2018-03-02T03:44:59.968Z,12.55
2018-03-02T03:47:28.339Z,12.02
2018-03-02T03:49:56.908Z,12.30
2018-03-02T03:52:25.432Z,11.90
2018-03-02T03:54:53.982Z,11.10
2018-03-02T03:57:22.520Z,12.65
2018-03-02T03:59:51.069Z,12.05
2018-03-02T04:02:19.611Z,9.95
2018-03-02T04:04:48.172Z,12.15
2018-03-02T04:07:16.706Z,10.38
2018-03-02T04:09:47.108Z,11.52
2018-03-02T04:12:16.199Z,13.88
2018-03-02T04:14:45.158Z,12.68
2018-03-02T04:17:13.796Z,13.35
2018-03-02T04:19:42.361Z,13.00
2018-03-02T04:22:10.725Z,14.32
2018-03-02T04:24:39.256Z,14.80
2018-03-02T04:27:07.841Z,13.38
2018-03-02T04:29:36.400Z,13.55
2018-03-02T04:32:04.951Z,12.48
2018-03-02T04:34:33.491Z,14.75
2018-03-02T04:37:02.062Z,13.13
2018-03-02T04:39:30.609Z,14.23
2018-03-02T04:41:59.161Z,14.05
2018-03-02T04:44:27.716Z,13.65
2018-03-02T04:46:56.281Z,16.02
2018-03-02T04:49:24.869Z,13.18
2018-03-02T04:51:53.418Z,15.18
2018-03-02T04:54:21.956Z,12.27
2018-03-02T04:56:51.275Z,16.80
2018-03-02T04:59:19.814Z,11.98
2018-03-02T05:01:49.147Z,14.90
2018-03-02T05:04:17.484Z,14.30
2018-03-02T05:06:46.081Z,16.17
2018-03-02T05:09:14.621Z,14.95
2018-03-02T05:11:47.037Z,12.90
2018-03-02T05:14:15.601Z,15.48
2018-03-02T05:16:44.149Z,16.42
2018-03-02T05:19:13.323Z,13.90
2018-03-02T05:21:41.878Z,14.55
2018-03-02T05:24:10.423Z,13.60
2018-03-02T05:26:38.989Z,15.30
2018-03-02T05:29:07.562Z,13.35
2018-03-02T05:31:36.108Z,14.07
2018-03-02T05:34:04.753Z,15.48
2018-03-02T05:36:32.987Z,15.77
2018-03-02T05:39:01.531Z,16.23
2018-03-02T05:41:30.103Z,14.93
2018-03-02T05:43:58.655Z,13.85
2018-03-02T05:46:27.205Z,14.38
2018-03-02T05:48:56.506Z,10.88
2018-03-02T05:51:25.048Z,12.10
2018-03-02T05:53:53.616Z,15.35
2018-03-02T05:56:28.041Z,12.50
2018-03-02T05:58:56.596Z,16.85
2018-03-02T06:01:25.916Z,15.52
2018-03-02T06:03:54.464Z,16.40
2018-03-02T06:06:22.672Z,13.18
2018-03-02T06:08:52.018Z,13.52
2018-03-02T06:11:20.721Z,17.98
2018-03-02T06:13:48.952Z,16.80
2018-03-02T06:16:17.483Z,17.77
2018-03-02T06:18:47.192Z,13.70
2018-03-02T06:21:15.764Z,15.18
2018-03-02T06:23:44.320Z,18.23
2018-03-02T06:26:13.629Z,16.20
2018-03-02T06:28:42.176Z,15.27
2018-03-02T06:31:10.732Z,16.77
2018-03-02T06:33:39.282Z,15.02
2018-03-02T06:36:07.833Z,16.80
2018-03-02T06:38:36.058Z,16.70
2018-03-02T06:41:04.594Z,16.30
2018-03-02T06:43:33.131Z,13.48
2018-03-02T06:46:01.669Z,17.37
2018-03-02T06:48:30.202Z,17.02
2018-03-02T06:50:58.756Z,18.85
2018-03-02T06:53:27.321Z,13.73
2018-03-02T06:56:01.796Z,17.75
2018-03-02T06:58:31.143Z,15.32
2018-03-02T07:00:59.674Z,16.35
2018-03-02T07:03:29.042Z,15.30
2018-03-02T07:05:57.575Z,17.80
2018-03-02T07:08:26.109Z,17.75
2018-03-02T07:10:54.890Z,16.00
2018-03-02T07:13:23.475Z,16.45
2018-03-02T07:15:52.114Z,19.17
2018-03-02T07:21:17.556Z,15.70
2018-03-02T07:23:46.107Z,17.37
2018-03-02T07:26:14.659Z,19.30
2018-03-02T07:28:43.266Z,19.23
2018-03-02T07:31:12.020Z,19.12
2018-03-02T07:33:40.569Z,15.70
2018-03-02T07:36:09.124Z,18.87
2018-03-02T07:38:37.505Z,19.48
2018-03-02T07:41:05.455Z,20.73
2018-03-02T07:43:40.276Z,16.50
2018-03-02T07:46:08.550Z,16.47
2018-03-02T07:48:37.111Z,19.25
2018-03-02T07:51:05.958Z,17.58
2018-03-02T07:53:34.533Z,18.90
2018-03-02T07:56:03.245Z,17.62
2018-03-02T07:58:31.793Z,18.17
2018-03-02T08:01:00.378Z,17.60
2018-03-02T08:03:29.264Z,17.40
2018-03-02T08:06:00.925Z,20.33
2018-03-02T08:08:29.469Z,21.05
2018-03-02T08:10:58.048Z,14.50
2018-03-02T08:13:27.693Z,17.50
2018-03-02T08:15:56.258Z,13.52
2018-03-02T08:18:24.801Z,17.42
2018-03-02T08:20:53.357Z,13.57
2018-03-02T08:23:22.246Z,18.23
2018-03-02T08:25:51.155Z,17.10
2018-03-02T08:28:21.364Z,15.75
2018-03-02T08:30:49.953Z,18.85
2018-03-02T08:33:18.589Z,17.40
2018-03-02T08:35:47.136Z,16.80
2018-03-02T08:38:15.720Z,17.83
2018-03-02T08:40:44.253Z,15.95
2018-03-02T08:43:13.731Z,16.73
2018-03-02T08:45:42.290Z,18.15
2018-03-02T08:48:10.849Z,17.45
2018-03-02T08:50:39.397Z,16.15
2018-03-02T08:53:07.977Z,19.10
2018-03-02T08:55:36.513Z,16.25
2018-03-02T08:58:04.554Z,14.63
2018-03-02T09:00:33.115Z,14.65
2018-03-02T09:03:01.663Z,17.98
2018-03-02T09:05:30.220Z,17.10
2018-03-02T09:07:59.589Z,16.48
2018-03-02T09:10:28.364Z,17.55
2018-03-02T09:12:56.976Z,14.95
2018-03-02T09:15:25.560Z,18.08
2018-03-02T09:17:54.150Z,15.55
2018-03-02T09:20:22.740Z,18.23
2018-03-02T09:22:51.315Z,18.42
2018-03-02T09:25:19.858Z,16.62
2018-03-02T09:27:48.411Z,16.95
2018-03-02T09:30:17.059Z,15.80
2018-03-02T09:32:48.896Z,16.58
2018-03-02T09:35:18.278Z,16.30
2018-03-02T09:37:46.810Z,17.30
2018-03-02T09:40:15.076Z,17.05
2018-03-02T09:42:43.649Z,15.50
2018-03-02T09:47:55.960Z,18.52
2018-03-02T09:50:24.499Z,17.87
2018-03-02T09:52:53.057Z,19.30
2018-03-02T09:55:21.592Z,17.00
2018-03-02T09:57:50.148Z,18.00
2018-03-02T10:00:19.465Z,18.08
2018-03-02T10:02:47.751Z,16.80
2018-03-02T10:05:16.313Z,20.12
2018-03-02T10:07:44.863Z,17.67
2018-03-02T10:10:13.396Z,18.27
2018-03-02T10:12:41.956Z,17.65
2018-03-02T10:15:10.521Z,16.60
2018-03-02T10:17:39.072Z,19.27
2018-03-02T10:20:07.632Z,17.27
2018-03-02T10:22:36.210Z,18.83
2018-03-02T10:25:04.755Z,15.30
2018-03-02T10:27:33.284Z,18.42
2018-03-02T10:30:01.865Z,17.50
2018-03-02T10:32:30.419Z,16.60
2018-03-02T10:34:58.985Z,16.42
2018-03-02T10:37:27.518Z,19.45
2018-03-02T10:39:55.873Z,18.60
2018-03-02T10:42:24.421Z,16.62
2018-03-02T10:44:59.460Z,17.73
2018-03-02T10:47:28.800Z,18.23
2018-03-02T10:49:57.371Z,17.87
2018-03-02T10:52:25.464Z,16.77
2018-03-02T10:54:54.071Z,18.60
2018-03-02T10:57:22.611Z,19.02
2018-03-02T10:59:51.162Z,18.37
2018-03-02T11:02:21.326Z,19.08
2018-03-02T11:04:49.686Z,15.93
2018-03-02T11:07:19.024Z,19.02
2018-03-02T11:09:47.566Z,17.25
2018-03-02T11:12:16.112Z,18.65
2018-03-02T11:14:44.376Z,16.80
2018-03-02T11:17:12.947Z,18.52
2018-03-02T11:19:42.255Z,17.70
2018-03-02T11:22:10.787Z,19.12
2018-03-02T11:24:39.089Z,18.80
2018-03-02T11:27:07.364Z,19.33
2018-03-02T11:29:35.653Z,17.53
2018-03-02T11:32:04.254Z,15.02
2018-03-02T11:34:32.531Z,17.60
2018-03-02T11:37:01.002Z,18.17
2018-03-02T11:39:30.075Z,17.30
2018-03-02T11:41:58.348Z,16.57
2018-03-02T11:44:26.296Z,17.57
2018-03-02T11:46:54.281Z,17.50
2018-03-02T11:49:23.493Z,16.93
2018-03-02T11:51:51.774Z,19.13
2018-03-02T11:54:20.057Z,17.13
2018-03-02T11:56:48.333Z,16.57
2018-03-02T11:59:16.640Z,18.27
2018-03-02T12:01:44.896Z,17.37
2018-03-02T12:04:13.186Z,17.57
2018-03-02T12:06:41.458Z,18.87
2018-03-02T12:09:09.733Z,16.60
2018-03-02T12:11:38.003Z,18.37
2018-03-02T12:14:06.301Z,18.00
2018-03-02T12:16:34.580Z,15.00
2018-03-02T12:19:02.849Z,18.60
2018-03-02T12:21:31.126Z,18.63
2018-03-02T12:23:59.392Z,16.50
2018-03-02T12:26:27.680Z,15.60
2018-03-02T12:28:55.965Z,17.87
2018-03-02T12:31:24.252Z,18.07
2018-03-02T12:33:52.533Z,16.23
2018-03-02T12:36:20.834Z,18.67
2018-03-02T12:38:49.185Z,19.53
2018-03-02T12:41:17.589Z,17.10
2018-03-02T12:43:45.845Z,19.10
2018-03-02T12:46:14.917Z,18.93
2018-03-02T12:48:43.345Z,17.83
2018-03-02T12:51:11.637Z,15.80
2018-03-02T12:53:39.909Z,14.80
2018-03-02T12:56:08.188Z,18.83
2018-03-02T12:58:36.467Z,17.13
2018-03-02T13:01:04.743Z,18.80
2018-03-02T13:03:33.047Z,18.23
2018-03-02T13:06:01.313Z,17.83
2018-03-02T13:08:29.599Z,21.33
2018-03-02T13:10:57.861Z,19.27
2018-03-02T13:13:26.152Z,18.17
2018-03-02T13:15:54.404Z,18.43
2018-03-02T13:18:33.963Z,20.07
2018-03-02T13:21:03.537Z,21.23
2018-03-02T13:23:32.600Z,20.03
2018-03-02T13:26:00.889Z,18.53
2018-03-02T13:28:41.008Z,20.50
2018-03-02T13:31:09.281Z,21.43
2018-03-02T13:33:48.719Z,20.20
2018-03-02T13:36:16.997Z,20.83
2018-03-02T13:38:45.256Z,20.83
2018-03-02T13:41:25.558Z,19.43
2018-03-02T13:43:53.843Z,19.70
2018-03-02T13:46:22.122Z,19.27
2018-03-02T13:49:02.362Z,18.23
2018-03-02T13:51:30.319Z,21.00
2018-03-02T13:53:59.385Z,20.00
2018-03-02T13:56:39.502Z,20.07
2018-03-02T13:59:07.790Z,20.27
2018-03-02T14:01:36.045Z,19.50
2018-03-02T14:04:15.459Z,20.20
2018-03-02T14:06:43.752Z,19.30
2018-03-02T14:09:12.008Z,19.07
2018-03-02T14:11:40.314Z,17.83
2018-03-02T14:14:08.569Z,20.03
2018-03-02T14:16:37.649Z,18.90
2018-03-02T14:19:05.927Z,19.70
2018-03-02T14:21:35.126Z,19.67
2018-03-02T14:24:03.431Z,18.50
2018-03-02T14:26:31.731Z,20.20
2018-03-02T14:29:00.023Z,19.27
2018-03-02T14:31:29.100Z,19.70
2018-03-02T14:33:57.370Z,18.90
2018-03-02T14:36:26.076Z,21.23
2018-03-02T14:38:55.375Z,20.20
2018-03-02T14:41:23.698Z,18.90
2018-03-02T14:43:51.992Z,19.30
2018-03-02T14:46:20.338Z,21.03
2018-03-02T14:48:48.595Z,14.93
2018-03-02T14:51:17.401Z,19.33
2018-03-02T14:53:45.669Z,17.30
2018-03-02T14:56:13.985Z,21.53
2018-03-02T14:58:42.572Z,21.63
2018-03-02T15:04:10.607Z,22.03
2018-03-02T15:06:38.911Z,21.93
2018-03-02T15:09:07.188Z,21.47
2018-03-02T15:11:35.523Z,18.80
2018-03-02T15:14:03.817Z,20.70
2018-03-02T15:16:32.076Z,21.13
2018-03-02T15:19:00.362Z,21.53
2018-03-02T15:21:28.671Z,21.33
2018-03-02T15:23:56.962Z,20.43
2018-03-02T15:26:25.226Z,20.43
2018-03-02T15:28:53.740Z,20.08
2018-03-02T15:31:22.018Z,19.90
2018-03-02T15:33:50.538Z,20.33
2018-03-02T15:36:18.863Z,21.47
2018-03-02T15:38:47.130Z,19.10
2018-03-02T15:41:15.434Z,20.87
2018-03-02T15:43:43.948Z,22.13
2018-03-02T15:46:12.232Z,20.93
2018-03-02T15:48:40.504Z,20.47
2018-03-02T15:51:09.367Z,22.27
2018-03-02T15:53:37.658Z,18.83
2018-03-02T15:56:05.962Z,22.77
2018-03-02T15:58:35.021Z,22.83
2018-03-02T16:01:03.307Z,22.93
2018-03-02T16:03:31.600Z,22.20
2018-03-02T16:05:59.547Z,20.47
2018-03-02T16:08:27.895Z,22.03
2018-03-02T16:10:56.175Z,22.70
2018-03-02T16:13:24.492Z,19.27
2018-03-02T16:15:52.578Z,22.90
2018-03-02T16:18:21.014Z,22.07
2018-03-02T16:20:49.298Z,21.57
2018-03-02T16:23:17.599Z,21.90
2018-03-02T16:25:45.881Z,23.17
2018-03-02T16:28:14.194Z,21.87
2018-03-02T16:30:42.162Z,21.43
2018-03-02T16:33:10.448Z,20.90
2018-03-02T16:35:38.734Z,18.70
2018-03-02T16:38:07.006Z,22.87
2018-03-02T16:40:40.888Z,21.37
2018-03-02T16:43:08.989Z,20.60
2018-03-02T16:45:37.302Z,21.53
2018-03-02T16:48:05.570Z,20.93
2018-03-02T16:50:34.037Z,18.87
2018-03-02T16:53:02.326Z,24.33
2018-03-02T16:55:30.615Z,23.03
2018-03-02T16:57:58.889Z,22.03
2018-03-02T17:00:27.180Z,23.20
2018-03-02T17:02:55.846Z,27.13
2018-03-02T17:05:24.135Z,24.83
2018-03-02T17:07:52.429Z,16.53
2018-03-02T17:10:22.242Z,22.37
2018-03-02T17:12:50.714Z,20.33
2018-03-02T17:15:19.025Z,20.43
2018-03-02T17:17:47.647Z,20.88
2018-03-02T17:20:15.730Z,22.00
2018-03-02T17:22:45.179Z,19.27
2018-03-02T17:25:13.717Z,18.33
2018-03-02T17:27:42.024Z,19.67
2018-03-02T17:30:10.175Z,22.63
2018-03-02T17:32:38.746Z,19.60
2018-03-02T17:35:07.821Z,14.50
2018-03-02T17:37:36.125Z,18.80
2018-03-02T17:40:04.302Z,21.30
2018-03-02T17:42:32.595Z,17.23
2018-03-02T17:45:01.130Z,22.15
2018-03-02T17:47:29.473Z,21.77
2018-03-02T17:49:57.771Z,19.53
2018-03-02T17:52:26.082Z,19.13
2018-03-02T17:54:54.405Z,20.37
2018-03-02T17:57:22.974Z,17.67
2018-03-02T17:59:51.668Z,20.88
2018-03-02T18:02:20.517Z,20.70
2018-03-02T18:04:48.854Z,21.23
2018-03-02T18:07:17.913Z,19.83
2018-03-02T18:09:46.505Z,22.58
2018-03-02T18:12:14.773Z,18.13
2018-03-02T18:14:43.021Z,22.60
2018-03-02T18:17:11.308Z,21.57
2018-03-02T18:19:39.581Z,19.70
2018-03-02T18:22:14.233Z,22.02
2018-03-02T18:24:42.527Z,23.47
2018-03-02T18:27:11.072Z,22.58
2018-03-02T18:29:40.112Z,22.10
2018-03-02T18:32:08.420Z,21.30
2018-03-02T18:34:36.715Z,16.37
2018-03-02T18:37:04.994Z,22.27
2018-03-02T18:39:33.574Z,22.45
2018-03-02T18:42:02.157Z,23.25
2018-03-02T18:44:36.130Z,19.85
2018-03-02T18:47:04.683Z,22.27
2018-03-02T18:49:33.719Z,19.37
2018-03-02T18:52:02.167Z,21.40
2018-03-02T18:54:30.728Z,22.27
2018-03-02T18:56:59.317Z,21.58
2018-03-02T18:59:27.601Z,21.97
2018-03-02T19:01:56.210Z,22.67
2018-03-02T19:04:25.344Z,22.30
2018-03-02T19:06:54.117Z,21.08
2018-03-02T19:09:22.422Z,23.67
2018-03-02T19:11:50.988Z,22.00
2018-03-02T19:14:20.339Z,21.95
2018-03-02T19:16:48.646Z,22.43
2018-03-02T19:19:17.722Z,22.70
2018-03-02T19:21:47.496Z,24.00
2018-03-02T19:24:16.090Z,23.40
2018-03-02T19:29:37.804Z,25.25
2018-03-02T19:32:06.090Z,18.73
2018-03-02T19:34:34.712Z,23.80
2018-03-02T19:37:03.909Z,26.30
2018-03-02T19:39:32.224Z,23.67
2018-03-02T19:42:01.840Z,19.47
2018-03-02T19:44:30.192Z,24.87
2018-03-02T19:46:58.447Z,27.70
2018-03-02T19:49:27.475Z,24.17
2018-03-02T19:51:56.025Z,27.62
2018-03-02T19:54:24.318Z,25.33
2018-03-02T19:56:52.595Z,25.50
2018-03-02T19:59:20.919Z,24.80
2018-03-02T20:01:49.225Z,25.50
2018-03-02T20:04:17.176Z,21.40
2018-03-02T20:06:45.785Z,25.95
2018-03-02T20:09:14.149Z,27.53
2018-03-02T20:11:42.582Z,22.17
2018-03-02T20:14:10.805Z,24.87
2018-03-02T20:16:39.101Z,26.50
2018-03-02T20:19:07.658Z,23.67
2018-03-02T20:21:36.084Z,26.97
2018-03-02T20:24:04.335Z,22.13
2018-03-02T20:26:32.916Z,24.10
2018-03-02T20:29:01.331Z,25.93
2018-03-02T20:31:29.632Z,28.60
2018-03-02T20:33:58.695Z,27.37
2018-03-02T20:36:27.031Z,20.93
2018-03-02T20:38:55.310Z,28.53
2018-03-02T20:41:23.877Z,28.20
2018-03-02T20:43:52.315Z,25.63
2018-03-02T20:46:27.081Z,22.37
2018-03-02T20:48:55.446Z,25.60
2018-03-02T20:51:29.519Z,25.67
2018-03-02T20:53:57.800Z,25.23
2018-03-02T20:56:26.361Z,29.02
2018-03-02T20:58:54.671Z,23.10
2018-03-02T21:01:23.052Z,27.97
2018-03-02T21:03:51.367Z,26.10
2018-03-02T21:06:19.648Z,29.33
2018-03-02T21:08:48.004Z,27.93
2018-03-02T21:11:16.450Z,28.57
2018-03-02T21:13:45.032Z,28.23
2018-03-02T21:16:13.634Z,27.13
2018-03-02T21:18:42.205Z,30.10
2018-03-02T21:21:10.494Z,24.70
2018-03-02T21:23:39.077Z,27.65
2018-03-02T21:26:07.355Z,29.07
2018-03-02T21:28:35.695Z,28.50
2018-03-02T21:31:03.961Z,28.43
2018-03-02T21:33:32.709Z,27.52
2018-03-02T21:36:01.036Z,25.37
2018-03-02T21:38:29.313Z,28.97
2018-03-02T21:40:57.620Z,27.10
2018-03-02T21:43:25.903Z,25.97
2018-03-02T21:45:54.191Z,29.83
2018-03-02T21:48:22.489Z,27.10
2018-03-02T21:50:54.388Z,26.60
2018-03-02T21:53:22.682Z,24.93
2018-03-02T21:55:51.245Z,28.73
2018-03-02T21:58:19.510Z,30.93
2018-03-02T22:00:48.086Z,24.83
2018-03-02T22:03:16.634Z,27.40
2018-03-02T22:05:45.978Z,30.15
2018-03-02T22:08:14.528Z,31.25
2018-03-02T22:10:43.107Z,30.62
2018-03-02T22:13:11.392Z,30.87
2018-03-02T22:15:39.955Z,29.83
2018-03-02T22:18:10.079Z,29.80
2018-03-02T22:20:38.687Z,32.08
2018-03-02T22:23:07.656Z,25.23
2018-03-02T22:25:35.970Z,31.70
2018-03-02T22:28:04.018Z,26.65
2018-03-02T22:30:32.561Z,31.12
2018-03-02T22:33:00.851Z,32.50
2018-03-02T22:38:03.365Z,28.00
2018-03-02T22:40:31.656Z,34.10
2018-03-02T22:43:00.222Z,30.20
2018-03-02T22:45:28.540Z,30.23
2018-03-02T22:47:56.818Z,29.80
2018-03-02T22:50:25.364Z,32.00
2018-03-02T22:52:54.388Z,36.15
2018-03-02T22:55:22.959Z,34.28
2018-03-02T22:57:51.561Z,32.97
2018-03-02T23:00:20.131Z,38.38
2018-03-02T23:02:48.683Z,35.65
2018-03-02T23:05:17.992Z,35.13
2018-03-02T23:07:46.530Z,35.25
2018-03-02T23:10:15.080Z,34.20
2018-03-02T23:12:43.640Z,38.92
2018-03-02T23:15:15.318Z,38.42
2018-03-02T23:17:43.868Z,37.85
2018-03-02T23:20:12.421Z,37.80
2018-03-02T23:22:41.289Z,34.55
2018-03-02T23:25:09.872Z,38.08
2018-03-02T23:27:39.232Z,37.33
2018-03-02T23:30:07.655Z,36.67
2018-03-02T23:32:36.974Z,36.58
2018-03-02T23:35:05.528Z,33.40
2018-03-02T23:37:34.091Z,36.55
2018-03-02T23:40:02.637Z,37.58
2018-03-02T23:42:31.217Z,35.25
2018-03-02T23:45:00.545Z,34.63
2018-03-02T23:47:29.089Z,37.88
2018-03-02T23:49:57.644Z,34.60
2018-03-02T23:52:26.177Z,38.72
2018-03-02T23:54:55.502Z,36.33
2018-03-02T23:57:24.038Z,33.45
2018-03-02T23:59:52.306Z,38.70
